Time,TemperatureF,DewpointF,PressureIn,WindDirection,WindDirectionDegrees,WindSpeedMPH,WindSpeedGustMPH,Humidity,HourlyPrecipIn,Conditions,Clouds,dailyrainin,SoftwareType,DateUTC
2013-03-07 00:00:00,45.7,33.0,30.26,East,87,4.0,4.0,61,0.00,,,0.00,Wunderground v.1.15,2013-03-07 06:00:00,
2013-03-07 00:05:00,45.5,32.8,30.26,ESE,103,3.0,4.0,61,0.00,,,0.00,Wunderground v.1.15,2013-03-07 06:05:00,
2013-03-07 00:15:00,45.4,33.1,30.26,ENE,72,3.0,3.0,62,0.00,,,0.00,Wunderground v.1.15,2013-03-07 06:15:00,
2013-03-07 00:20:00,45.3,33.4,30.25,ENE,77,3.0,3.0,63,0.00,,,0.00,Wunderground v.1.15,2013-03-07 06:20:00,
2013-03-07 00:25:00,45.3,33.4,30.25,East,84,3.0,3.0,63,0.00,,,0.00,Wunderground v.1.15,2013-03-07 06:25:00,
2013-03-07 00:30:00,45.4,33.1,30.25,ENE,76,3.0,3.0,62,0.00,,,0.00,Wunderground v.1.15,2013-03-07 06:30:00,
2013-03-07 00:35:00,45.4,33.5,30.25,East,86,2.0,3.0,63,0.00,,,0.00,Wunderground v.1.15,2013-03-07 06:35:00,
2013-03-07 00:45:00,45.1,33.6,30.25,SE,124,3.0,3.0,64,0.00,,,0.00,Wunderground v.1.15,2013-03-07 06:45:00,
2013-03-07 00:50:00,45.1,33.2,30.25,ENE,76,2.0,2.0,63,0.00,,,0.00,Wunderground v.1.15,2013-03-07 06:50:00,
2013-03-07 00:55:00,45.3,33.4,30.25,ENE,69,1.0,3.0,63,0.00,,,0.00,Wunderground v.1.15,2013-03-07 06:55:00,
2013-03-07 01:00:00,45.5,33.2,30.25,ESE,103,2.0,2.0,62,0.00,,,0.00,Wunderground v.1.15,2013-03-07 07:00:00,
2013-03-07 01:05:00,45.3,33.0,30.25,East,87,2.0,4.0,62,0.00,,,0.00,Wunderground v.1.15,2013-03-07 07:05:00,
2013-03-07 01:15:00,45.1,32.8,30.26,ENE,70,2.0,7.0,62,0.00,,,0.00,Wunderground v.1.15,2013-03-07 07:15:00,
2013-03-07 01:20:00,45.1,32.8,30.27,East,91,1.0,7.0,62,0.00,,,0.00,Wunderground v.1.15,2013-03-07 07:20:00,
2013-03-07 01:25:00,45.2,32.9,30.27,East,101,1.0,7.0,62,0.00,,,0.00,Wunderground v.1.15,2013-03-07 07:25:00,
2013-03-07 01:30:00,45.3,33.4,30.28,East,94,1.0,7.0,63,0.00,,,0.00,Wunderground v.1.15,2013-03-07 07:30:00,
2013-03-07 01:35:00,45.2,32.9,30.28,East,86,1.0,7.0,62,0.00,,,0.00,Wunderground v.1.15,2013-03-07 07:35:00,
2013-03-07 01:40:00,45.5,33.2,30.28,ENE,76,1.0,1.0,62,0.00,,,0.00,Wunderground v.1.15,2013-03-07 07:40:00,
2013-03-07 01:45:00,45.5,33.2,30.28,ESE,106,1.0,2.0,62,0.00,,,0.00,Wunderground v.1.15,2013-03-07 07:45:00,
2013-03-07 01:50:00,45.1,33.2,30.28,ESE,102,1.0,7.0,63,0.00,,,0.00,Wunderground v.1.15,2013-03-07 07:50:00,
2013-03-07 01:55:00,44.9,33.1,30.28,East,100,1.0,7.0,63,0.00,,,0.00,Wunderground v.1.15,2013-03-07 07:55:00,
2013-03-07 02:00:00,44.8,33.4,30.28,East,91,1.0,1.0,64,0.00,,,0.00,Wunderground v.1.15,2013-03-07 08:00:00,
2013-03-07 02:05:00,44.7,33.3,30.28,East,91,0.0,7.0,64,0.00,,,0.00,Wunderground v.1.15,2013-03-07 08:05:00,
2013-03-07 02:10:00,44.5,33.1,30.28,East,91,0.0,7.0,64,0.00,,,0.00,Wunderground v.1.15,2013-03-07 08:10:00,
2013-03-07 02:20:00,44.3,32.9,30.28,East,91,0.0,7.0,64,0.00,,,0.00,Wunderground v.1.15,2013-03-07 08:20:00,
2013-03-07 02:25:00,44.1,33.5,30.27,East,91,0.0,7.0,66,0.00,,,0.00,Wunderground v.1.15,2013-03-07 08:25:00,
2013-03-07 02:30:00,43.6,33.4,30.27,East,91,0.0,7.0,67,0.00,,,0.00,Wunderground v.1.15,2013-03-07 08:30:00,
2013-03-07 02:35:00,43.5,33.3,30.27,NE,49,0.0,7.0,67,0.00,,,0.00,Wunderground v.1.15,2013-03-07 08:35:00,
2013-03-07 02:40:00,43.6,33.0,30.27,East,84,0.0,7.0,66,0.00,,,0.00,Wunderground v.1.15,2013-03-07 08:40:00,
2013-03-07 02:46:00,43.6,33.0,30.27,NE,43,1.0,7.0,66,0.00,,,0.00,Wunderground v.1.15,2013-03-07 08:46:00,
2013-03-07 02:55:00,43.0,32.8,30.28,NNE,30,1.0,7.0,67,0.00,,,0.00,Wunderground v.1.15,2013-03-07 08:55:00,
2013-03-07 03:00:00,43.0,33.2,30.27,NNE,31,1.0,1.0,68,0.00,,,0.00,Wunderground v.1.15,2013-03-07 09:00:00,
2013-03-07 03:05:00,43.1,33.3,30.27,NNE,32,0.0,7.0,68,0.00,,,0.00,Wunderground v.1.15,2013-03-07 09:05:00,
2013-03-07 03:10:00,42.9,33.1,30.28,NNE,31,0.0,7.0,68,0.00,,,0.00,Wunderground v.1.15,2013-03-07 09:10:00,
2013-03-07 03:15:00,42.7,33.2,30.28,NNE,32,0.0,7.0,69,0.00,,,0.00,Wunderground v.1.15,2013-03-07 09:15:00,
2013-03-07 03:20:00,42.5,33.4,30.28,NNE,32,0.0,7.0,70,0.00,,,0.00,Wunderground v.1.15,2013-03-07 09:20:00,
2013-03-07 03:25:00,42.3,32.8,30.28,NNE,32,0.0,7.0,69,0.00,,,0.00,Wunderground v.1.15,2013-03-07 09:25:00,
2013-03-07 03:30:00,42.0,34.0,30.29,NNE,31,0.0,7.0,73,0.00,,,0.00,Wunderground v.1.15,2013-03-07 09:30:00,
2013-03-07 03:35:00,41.8,33.4,30.28,NNE,31,0.0,7.0,72,0.00,,,0.00,Wunderground v.1.15,2013-03-07 09:35:00,
2013-03-07 03:40:00,41.7,34.4,30.28,NNE,31,0.0,7.0,75,0.00,,,0.00,Wunderground v.1.15,2013-03-07 09:40:00,
2013-03-07 03:45:00,41.5,33.8,30.28,NNE,31,0.0,7.0,74,0.00,,,0.00,Wunderground v.1.15,2013-03-07 09:45:00,
2013-03-07 03:50:00,41.3,33.6,30.27,NNE,32,0.0,7.0,74,0.00,,,0.00,Wunderground v.1.15,2013-03-07 09:50:00,
2013-03-07 04:00:00,40.7,34.4,30.28,NNE,32,0.0,7.0,78,0.00,,,0.00,Wunderground v.1.15,2013-03-07 10:00:00,
2013-03-07 04:06:00,40.6,34.3,30.28,NNE,32,0.0,7.0,78,0.00,,,0.00,Wunderground v.1.15,2013-03-07 10:06:00,
2013-03-07 04:15:00,40.3,33.7,30.28,ENE,63,0.0,7.0,77,0.00,,,0.00,Wunderground v.1.15,2013-03-07 10:15:00,
2013-03-07 04:20:00,40.1,33.8,30.28,ENE,65,0.0,7.0,78,0.00,,,0.00,Wunderground v.1.15,2013-03-07 10:20:00,
2013-03-07 04:25:00,39.8,34.4,30.28,ESE,102,0.0,7.0,81,0.00,,,0.00,Wunderground v.1.15,2013-03-07 10:25:00,
2013-03-07 04:35:00,38.5,33.8,30.27,ESE,115,1.0,7.0,83,0.00,,,0.00,Wunderground v.1.15,2013-03-07 10:35:00,
2013-03-07 04:40:00,38.2,33.5,30.26,ESE,104,1.0,7.0,83,0.00,,,0.00,Wunderground v.1.15,2013-03-07 10:40:00,
2013-03-07 04:45:00,38.5,33.2,30.27,East,89,1.0,7.0,81,0.00,,,0.00,Wunderground v.1.15,2013-03-07 10:45:00,
2013-03-07 04:50:00,38.6,33.3,30.27,East,91,1.0,1.0,81,0.00,,,0.00,Wunderground v.1.15,2013-03-07 10:50:00,
2013-03-07 04:55:00,38.6,33.0,30.28,East,91,0.0,7.0,80,0.00,,,0.00,Wunderground v.1.15,2013-03-07 10:55:00,
2013-03-07 05:00:00,38.8,33.2,30.27,ENE,63,0.0,7.0,80,0.00,,,0.00,Wunderground v.1.15,2013-03-07 11:00:00,
2013-03-07 05:10:00,39.3,33.3,30.27,East,90,0.0,7.0,79,0.00,,,0.00,Wunderground v.1.15,2013-03-07 11:10:00,
2013-03-07 05:15:00,39.1,33.1,30.27,ESE,116,1.0,7.0,79,0.00,,,0.00,Wunderground v.1.15,2013-03-07 11:15:00,
2013-03-07 05:20:00,39.1,32.8,30.27,East,80,1.0,1.0,78,0.00,,,0.00,Wunderground v.1.15,2013-03-07 11:20:00,
2013-03-07 05:25:00,39.0,32.7,30.28,East,80,0.0,7.0,78,0.00,,,0.00,Wunderground v.1.15,2013-03-07 11:25:00,
2013-03-07 05:30:00,39.2,32.6,30.28,ESE,108,0.0,7.0,77,0.00,,,0.00,Wunderground v.1.15,2013-03-07 11:30:00,
2013-03-07 05:35:00,39.4,32.5,30.28,ESE,113,1.0,7.0,76,0.00,,,0.00,Wunderground v.1.15,2013-03-07 11:35:00,
2013-03-07 05:40:00,39.4,34.1,30.29,ESE,113,0.0,7.0,81,0.00,,,0.00,Wunderground v.1.15,2013-03-07 11:40:00,
2013-03-07 05:45:00,39.0,34.0,30.29,ESE,113,0.0,7.0,82,0.00,,,0.00,Wunderground v.1.15,2013-03-07 11:45:00,
2013-03-07 05:50:00,38.5,32.9,30.29,ESE,113,0.0,7.0,80,0.00,,,0.00,Wunderground v.1.15,2013-03-07 11:50:00,
2013-03-07 05:55:00,38.6,32.6,30.29,ESE,113,0.0,7.0,79,0.00,,,0.00,Wunderground v.1.15,2013-03-07 11:55:00,
2013-03-07 06:00:00,38.8,32.5,30.29,ESE,113,0.0,7.0,78,0.00,,,0.00,Wunderground v.1.15,2013-03-07 12:00:00,
2013-03-07 06:05:00,38.9,32.3,30.29,ESE,113,0.0,7.0,77,0.00,,,0.00,Wunderground v.1.15,2013-03-07 12:05:00,
2013-03-07 06:15:00,38.4,32.8,30.30,ESE,113,0.0,7.0,80,0.00,,,0.00,Wunderground v.1.15,2013-03-07 12:15:00,
2013-03-07 06:20:00,38.4,32.8,30.30,ESE,113,0.0,7.0,80,0.00,,,0.00,Wunderground v.1.15,2013-03-07 12:20:00,
2013-03-07 06:25:00,38.7,32.7,30.30,ESE,113,0.0,7.0,79,0.00,,,0.00,Wunderground v.1.15,2013-03-07 12:25:00,
2013-03-07 06:30:00,38.9,32.6,30.30,ESE,113,0.0,7.0,78,0.00,,,0.00,Wunderground v.1.15,2013-03-07 12:30:00,
2013-03-07 06:35:00,39.1,32.8,30.30,ESE,113,0.0,7.0,78,0.00,,,0.00,Wunderground v.1.15,2013-03-07 12:35:00,
2013-03-07 06:45:00,38.8,32.5,30.31,NNE,24,0.0,7.0,78,0.00,,,0.00,Wunderground v.1.15,2013-03-07 12:45:00,
2013-03-07 06:50:00,39.1,32.8,30.31,NNE,24,0.0,7.0,78,0.00,,,0.00,Wunderground v.1.15,2013-03-07 12:50:00,
2013-03-07 06:55:00,39.9,33.6,30.31,NNE,24,0.0,7.0,78,0.00,,,0.00,Wunderground v.1.15,2013-03-07 12:55:00,
2013-03-07 07:00:00,40.4,33.4,30.31,NNE,25,0.0,7.0,76,0.00,,,0.00,Wunderground v.1.15,2013-03-07 13:00:00,
2013-03-07 07:05:00,40.4,33.8,30.32,NNE,24,0.0,7.0,77,0.00,,,0.00,Wunderground v.1.15,2013-03-07 13:05:00,
2013-03-07 07:11:00,40.7,34.7,30.32,NNE,24,0.0,7.0,79,0.00,,,0.00,Wunderground v.1.15,2013-03-07 13:11:00,
2013-03-07 07:20:00,42.7,35.3,30.32,NE,35,0.0,7.0,75,0.00,,,0.00,Wunderground v.1.15,2013-03-07 13:20:00,
2013-03-07 07:25:00,42.7,35.0,30.33,East,100,0.0,7.0,74,0.00,,,0.00,Wunderground v.1.15,2013-03-07 13:25:00,
2013-03-07 07:30:00,42.7,34.6,30.33,East,96,1.0,7.0,73,0.00,,,0.00,Wunderground v.1.15,2013-03-07 13:30:00,
2013-03-07 07:35:00,42.9,35.2,30.33,ENE,64,1.0,7.0,74,0.00,,,0.00,Wunderground v.1.15,2013-03-07 13:35:00,
2013-03-07 07:40:00,43.1,35.4,30.33,ENE,68,2.0,2.0,74,0.00,,,0.00,Wunderground v.1.15,2013-03-07 13:40:00,
2013-03-07 07:45:00,43.3,34.5,30.33,ESE,122,3.0,4.0,71,0.00,,,0.00,Wunderground v.1.15,2013-03-07 13:45:00,
2013-03-07 07:55:00,43.7,35.3,30.34,East,92,3.0,7.0,72,0.00,,,0.00,Wunderground v.1.15,2013-03-07 13:55:00,
2013-03-07 08:00:00,44.1,36.0,30.34,East,79,3.0,7.0,73,0.00,,,0.00,Wunderground v.1.15,2013-03-07 14:00:00,
2013-03-07 08:05:00,44.2,34.7,30.34,East,88,4.0,7.0,69,0.00,,,0.00,Wunderground v.1.15,2013-03-07 14:05:00,
2013-03-07 08:10:00,44.5,35.7,30.34,East,84,4.0,7.0,71,0.00,,,0.00,Wunderground v.1.15,2013-03-07 14:10:00,
2013-03-07 08:15:00,44.7,35.5,30.35,ESE,107,5.0,7.0,70,0.00,,,0.00,Wunderground v.1.15,2013-03-07 14:15:00,
2013-03-07 08:25:00,45.5,35.5,30.35,East,89,5.0,7.0,68,0.00,,,0.00,Wunderground v.1.15,2013-03-07 14:25:00,
2013-03-07 08:30:00,45.8,35.8,30.35,East,84,5.0,7.0,68,0.00,,,0.00,Wunderground v.1.15,2013-03-07 14:30:00,
2013-03-07 08:35:00,46.3,36.7,30.36,ENE,69,5.0,7.0,69,0.00,,,0.00,Wunderground v.1.15,2013-03-07 14:35:00,
2013-03-07 08:40:00,46.6,36.2,30.36,ESE,111,5.0,5.0,67,0.00,,,0.00,Wunderground v.1.15,2013-03-07 14:40:00,
2013-03-07 08:45:00,46.6,36.2,30.36,East,84,5.0,7.0,67,0.00,,,0.00,Wunderground v.1.15,2013-03-07 14:45:00,
2013-03-07 08:50:00,46.7,36.3,30.36,East,89,5.0,5.0,67,0.00,,,0.00,Wunderground v.1.15,2013-03-07 14:50:00,
2013-03-07 09:00:00,47.9,37.5,30.36,East,101,5.0,7.0,67,0.00,,,0.00,Wunderground v.1.15,2013-03-07 15:00:00,
2013-03-07 09:05:00,48.3,36.7,30.36,East,94,5.0,7.0,64,0.00,,,0.00,Wunderground v.1.15,2013-03-07 15:05:00,
2013-03-07 09:10:00,48.5,36.5,30.36,ENE,72,5.0,7.0,63,0.00,,,0.00,Wunderground v.1.15,2013-03-07 15:10:00,
2013-03-07 09:15:00,48.7,35.8,30.35,ENE,76,5.0,7.0,61,0.00,,,0.00,Wunderground v.1.15,2013-03-07 15:15:00,
2013-03-07 09:20:00,49.5,37.0,30.35,ESE,111,5.0,5.0,62,0.00,,,0.00,Wunderground v.1.15,2013-03-07 15:20:00,
2013-03-07 09:25:00,50.1,35.4,30.35,East,85,4.0,7.0,57,0.00,,,0.00,Wunderground v.1.15,2013-03-07 15:25:00,
2013-03-07 09:30:00,50.4,36.2,30.35,ESE,113,4.0,4.0,58,0.00,,,0.00,Wunderground v.1.15,2013-03-07 15:30:00,
2013-03-07 09:35:00,50.7,36.0,30.35,East,98,4.0,7.0,57,0.00,,,0.00,Wunderground v.1.15,2013-03-07 15:35:00,
2013-03-07 09:40:00,50.8,36.5,30.35,East,89,4.0,4.0,58,0.00,,,0.00,Wunderground v.1.15,2013-03-07 15:40:00,
2013-03-07 09:45:00,51.3,37.4,30.35,ESE,108,4.0,5.0,59,0.00,,,0.00,Wunderground v.1.15,2013-03-07 15:45:00,
2013-03-07 09:50:00,52.0,36.8,30.35,SE,132,4.0,4.0,56,0.00,,,0.00,Wunderground v.1.15,2013-03-07 15:50:00,
2013-03-07 09:55:00,52.2,36.5,30.35,ESE,119,4.0,7.0,55,0.00,,,0.00,Wunderground v.1.15,2013-03-07 15:55:00,
2013-03-07 10:00:00,52.6,36.9,30.35,East,79,4.0,4.0,55,0.00,,,0.00,Wunderground v.1.15,2013-03-07 16:00:00,
2013-03-07 10:05:00,52.4,35.8,30.35,ESE,106,4.0,7.0,53,0.00,,,0.00,Wunderground v.1.15,2013-03-07 16:05:00,
2013-03-07 10:10:00,52.3,36.1,30.35,ENE,57,4.0,4.0,54,0.00,,,0.00,Wunderground v.1.15,2013-03-07 16:10:00,
2013-03-07 10:15:00,52.5,35.8,30.35,East,81,4.0,7.0,53,0.00,,,0.00,Wunderground v.1.15,2013-03-07 16:15:00,
2013-03-07 10:20:00,53.2,36.0,30.35,NE,48,4.0,4.0,52,0.00,,,0.00,Wunderground v.1.15,2013-03-07 16:20:00,
2013-03-07 10:25:00,54.0,35.8,30.35,East,97,3.0,7.0,50,0.00,,,0.00,Wunderground v.1.15,2013-03-07 16:25:00,
2013-03-07 10:30:00,54.6,35.8,30.35,East,96,3.0,7.0,49,0.00,,,0.00,Wunderground v.1.15,2013-03-07 16:30:00,
2013-03-07 10:35:00,54.7,33.8,30.35,SE,124,3.0,7.0,45,0.00,,,0.00,Wunderground v.1.15,2013-03-07 16:35:00,
2013-03-07 10:40:00,55.4,33.3,30.35,North,8,4.0,7.0,43,0.00,,,0.00,Wunderground v.1.15,2013-03-07 16:40:00,
2013-03-07 10:45:00,55.8,35.3,30.34,ESE,106,4.0,7.0,46,0.00,,,0.00,Wunderground v.1.15,2013-03-07 16:45:00,
2013-03-07 10:50:00,56.1,34.5,30.35,SSE,158,4.0,4.0,44,0.00,,,0.00,Wunderground v.1.15,2013-03-07 16:50:00,
2013-03-07 10:55:00,56.8,35.1,30.34,SE,141,3.0,5.0,44,0.00,,,0.00,Wunderground v.1.15,2013-03-07 16:55:00,
2013-03-07 11:00:00,57.4,35.1,30.34,East,90,3.0,7.0,43,0.00,,,0.00,Wunderground v.1.15,2013-03-07 17:00:00,
2013-03-07 11:10:00,57.4,33.9,30.34,ESE,117,4.0,4.0,41,0.00,,,0.00,Wunderground v.1.15,2013-03-07 17:10:00,
2013-03-07 11:15:00,57.7,33.5,30.34,ESE,110,4.0,6.0,40,0.00,,,0.00,Wunderground v.1.15,2013-03-07 17:15:00,
2013-03-07 11:20:00,57.5,33.3,30.34,ENE,70,5.0,5.0,40,0.00,,,0.00,Wunderground v.1.15,2013-03-07 17:20:00,
2013-03-07 11:25:00,58.2,35.2,30.34,SE,137,3.0,7.0,42,0.00,,,0.00,Wunderground v.1.15,2013-03-07 17:25:00,
2013-03-07 11:30:00,58.6,34.3,30.34,ESE,104,3.0,7.0,40,0.00,,,0.00,Wunderground v.1.15,2013-03-07 17:30:00,
2013-03-07 11:40:00,59.4,35.7,30.34,ESE,117,3.0,7.0,41,0.00,,,0.00,Wunderground v.1.15,2013-03-07 17:40:00,
2013-03-07 11:45:00,59.3,35.0,30.33,SSE,148,3.0,7.0,40,0.00,,,0.00,Wunderground v.1.15,2013-03-07 17:45:00,
2013-03-07 11:50:00,59.6,34.6,30.33,South,189,4.0,4.0,39,0.00,,,0.00,Wunderground v.1.15,2013-03-07 17:50:00,
2013-03-07 11:55:00,60.1,34.4,30.33,East,98,3.0,7.0,38,0.00,,,0.00,Wunderground v.1.15,2013-03-07 17:55:00,
2013-03-07 12:00:00,59.7,34.0,30.32,SSE,155,3.0,7.0,38,0.00,,,0.00,Wunderground v.1.15,2013-03-07 18:00:00,
2013-03-07 12:05:00,60.0,35.0,30.32,SE,129,3.0,7.0,39,0.00,,,0.00,Wunderground v.1.15,2013-03-07 18:05:00,
2013-03-07 12:15:00,60.7,34.9,30.32,ENE,70,4.0,5.0,38,0.00,,,0.00,Wunderground v.1.15,2013-03-07 18:15:00,
2013-03-07 12:20:00,60.5,34.1,30.32,East,94,4.0,7.0,37,0.00,,,0.00,Wunderground v.1.15,2013-03-07 18:20:00,
2013-03-07 12:25:00,60.9,34.4,30.32,NW,323,3.0,7.0,37,0.00,,,0.00,Wunderground v.1.15,2013-03-07 18:25:00,
2013-03-07 12:30:00,61.0,33.8,30.32,NNW,336,3.0,3.0,36,0.00,,,0.00,Wunderground v.1.15,2013-03-07 18:30:00,
2013-03-07 12:35:00,61.0,35.2,30.31,NW,317,3.0,7.0,38,0.00,,,0.00,Wunderground v.1.15,2013-03-07 18:35:00,
2013-03-07 12:45:00,61.4,32.8,30.30,NNW,339,3.0,7.0,34,0.00,,,0.00,Wunderground v.1.15,2013-03-07 18:45:00,
2013-03-07 12:50:00,61.1,31.8,30.30,NW,309,4.0,4.0,33,0.00,,,0.00,Wunderground v.1.15,2013-03-07 18:50:00,
2013-03-07 12:55:00,60.9,31.6,30.30,North,1,5.0,5.0,33,0.00,,,0.00,Wunderground v.1.15,2013-03-07 18:55:00,
2013-03-07 13:00:00,61.0,33.8,30.30,ENE,61,5.0,5.0,36,0.00,,,0.00,Wunderground v.1.15,2013-03-07 19:00:00,
2013-03-07 13:05:00,60.5,32.7,30.29,SE,130,5.0,7.0,35,0.00,,,0.00,Wunderground v.1.15,2013-03-07 19:05:00,
2013-03-07 13:10:00,60.3,32.5,30.29,NNE,13,4.0,7.0,35,0.00,,,0.00,Wunderground v.1.15,2013-03-07 19:10:00,
2013-03-07 13:20:00,60.7,32.9,30.29,NNE,15,2.0,2.0,35,0.00,,,0.00,Wunderground v.1.15,2013-03-07 19:20:00,
2013-03-07 13:25:00,61.3,32.7,30.29,NE,40,2.0,7.0,34,0.00,,,0.00,Wunderground v.1.15,2013-03-07 19:25:00,
2013-03-07 13:30:00,60.9,32.3,30.28,NNE,26,2.0,7.0,34,0.00,,,0.00,Wunderground v.1.15,2013-03-07 19:30:00,
2013-03-07 13:35:00,60.5,32.7,30.28,North,360,2.0,7.0,35,0.00,,,0.00,Wunderground v.1.15,2013-03-07 19:35:00,
2013-03-07 13:40:00,60.6,34.2,30.28,SSE,148,2.0,7.0,37,0.00,,,0.00,Wunderground v.1.15,2013-03-07 19:40:00,
2013-03-07 13:50:00,61.0,33.1,30.27,NE,45,3.0,7.0,35,0.00,,,0.00,Wunderground v.1.15,2013-03-07 19:50:00,
2013-03-07 13:55:00,61.0,33.1,30.27,NE,45,2.0,7.0,35,0.00,,,0.00,Wunderground v.1.15,2013-03-07 19:55:00,
2013-03-07 14:00:00,61.9,35.3,30.27,East,87,2.0,7.0,37,0.00,,,0.00,Wunderground v.1.15,2013-03-07 20:00:00,
2013-03-07 14:05:00,62.6,35.3,30.27,ENE,68,2.0,7.0,36,0.00,,,0.00,Wunderground v.1.15,2013-03-07 20:05:00,
2013-03-07 14:10:00,62.7,33.9,30.27,SE,143,2.0,2.0,34,0.00,,,0.00,Wunderground v.1.15,2013-03-07 20:10:00,
2013-03-07 14:15:00,62.5,32.2,30.26,North,356,2.0,7.0,32,0.00,,,0.00,Wunderground v.1.15,2013-03-07 20:15:00,
2013-03-07 14:20:00,62.0,33.3,30.26,ESE,113,1.0,7.0,34,0.00,,,0.00,Wunderground v.1.15,2013-03-07 20:20:00,
2013-03-07 14:25:00,62.0,32.5,30.26,SSE,150,2.0,7.0,33,0.00,,,0.00,Wunderground v.1.15,2013-03-07 20:25:00,
2013-03-07 14:30:00,62.8,33.2,30.26,SSW,195,2.0,2.0,33,0.00,,,0.00,Wunderground v.1.15,2013-03-07 20:30:00,
2013-03-07 14:35:00,64.3,34.6,30.26,SSE,150,1.0,7.0,33,0.00,,,0.00,Wunderground v.1.15,2013-03-07 20:35:00,
2013-03-07 14:40:00,63.4,33.0,30.25,NE,39,2.0,7.0,32,0.00,,,0.00,Wunderground v.1.15,2013-03-07 20:40:00,
2013-03-07 14:45:00,62.5,33.0,30.25,East,81,3.0,7.0,33,0.00,,,0.00,Wunderground v.1.15,2013-03-07 20:45:00,
2013-03-07 14:50:00,63.0,33.4,30.25,SE,140,2.0,7.0,33,0.00,,,0.00,Wunderground v.1.15,2013-03-07 20:50:00,
2013-03-07 14:55:00,63.3,33.7,30.25,ESE,120,2.0,7.0,33,0.00,,,0.00,Wunderground v.1.15,2013-03-07 20:55:00,
2013-03-07 15:00:00,64.1,34.4,30.25,ENE,59,2.0,7.0,33,0.00,,,0.00,Wunderground v.1.15,2013-03-07 21:00:00,
2013-03-07 15:05:00,63.8,33.4,30.25,East,84,3.0,7.0,32,0.00,,,0.00,Wunderground v.1.15,2013-03-07 21:05:00,
2013-03-07 15:10:00,63.9,31.8,30.25,East,95,3.0,3.0,30,0.00,,,0.00,Wunderground v.1.15,2013-03-07 21:10:00,
2013-03-07 15:15:00,65.0,31.9,30.25,WSW,249,1.0,7.0,29,0.00,,,0.00,Wunderground v.1.15,2013-03-07 21:15:00,
2013-03-07 15:25:00,65.4,32.3,30.25,SE,129,2.0,7.0,29,0.00,,,0.00,Wunderground v.1.15,2013-03-07 21:25:00,
2013-03-07 15:30:00,64.9,32.7,30.25,ESE,122,2.0,7.0,30,0.00,,,0.00,Wunderground v.1.15,2013-03-07 21:30:00,
2013-03-07 15:35:00,64.4,31.4,30.25,SE,131,2.0,7.0,29,0.00,,,0.00,Wunderground v.1.15,2013-03-07 21:35:00,
2013-03-07 15:40:00,64.0,32.7,30.25,SE,145,3.0,7.0,31,0.00,,,0.00,Wunderground v.1.15,2013-03-07 21:40:00,
2013-03-07 15:45:00,64.3,32.2,30.24,South,169,3.0,7.0,30,0.00,,,0.00,Wunderground v.1.15,2013-03-07 21:45:00,
2013-03-07 15:50:00,65.0,32.8,30.24,SE,134,3.0,3.0,30,0.00,,,0.00,Wunderground v.1.15,2013-03-07 21:50:00,
2013-03-07 16:00:00,64.9,31.0,30.24,SE,133,2.0,2.0,28,0.00,,,0.00,Wunderground v.1.15,2013-03-07 22:00:00,
2013-03-07 16:05:00,64.8,33.4,30.24,ENE,72,2.0,7.0,31,0.00,,,0.00,Wunderground v.1.15,2013-03-07 22:05:00,
2013-03-07 16:10:00,64.6,31.6,30.24,SSE,165,2.0,2.0,29,0.00,,,0.00,Wunderground v.1.15,2013-03-07 22:10:00,
2013-03-07 16:15:00,65.4,33.1,30.24,SSE,159,1.0,7.0,30,0.00,,,0.00,Wunderground v.1.15,2013-03-07 22:15:00,
2013-03-07 16:20:00,65.1,32.0,30.24,SSE,152,2.0,2.0,29,0.00,,,0.00,Wunderground v.1.15,2013-03-07 22:20:00,
2013-03-07 16:30:00,64.7,31.7,30.24,SSE,147,3.0,3.0,29,0.00,,,0.00,Wunderground v.1.15,2013-03-07 22:30:00,
2013-03-07 16:35:00,64.6,33.3,30.24,SE,136,2.0,7.0,31,0.00,,,0.00,Wunderground v.1.15,2013-03-07 22:35:00,
2013-03-07 16:40:00,64.6,32.4,30.24,ESE,113,2.0,7.0,30,0.00,,,0.00,Wunderground v.1.15,2013-03-07 22:40:00,
2013-03-07 16:45:00,64.6,32.4,30.23,ESE,115,2.0,7.0,30,0.00,,,0.00,Wunderground v.1.15,2013-03-07 22:45:00,
2013-03-07 16:50:00,64.6,32.4,30.24,South,169,2.0,7.0,30,0.00,,,0.00,Wunderground v.1.15,2013-03-07 22:50:00,
2013-03-07 16:55:00,65.5,31.5,30.24,South,170,2.0,7.0,28,0.00,,,0.00,Wunderground v.1.15,2013-03-07 22:55:00,
2013-03-07 17:05:00,64.9,34.3,30.24,South,172,2.0,7.0,32,0.00,,,0.00,Wunderground v.1.15,2013-03-07 23:05:00,
2013-03-07 17:10:00,64.9,31.0,30.24,SSW,205,2.0,2.0,28,0.00,,,0.00,Wunderground v.1.15,2013-03-07 23:10:00,
2013-03-07 17:16:00,64.7,34.1,30.23,SSE,155,2.0,7.0,32,0.00,,,0.00,Wunderground v.1.15,2013-03-07 23:16:00,
2013-03-07 17:25:00,63.9,33.4,30.23,SSE,160,2.0,7.0,32,0.00,,,0.00,Wunderground v.1.15,2013-03-07 23:25:00,
2013-03-07 17:30:00,63.6,33.9,30.24,SSE,153,2.0,7.0,33,0.00,,,0.00,Wunderground v.1.15,2013-03-07 23:30:00,
2013-03-07 17:40:00,63.1,33.5,30.24,SE,143,2.0,7.0,33,0.00,,,0.00,Wunderground v.1.15,2013-03-07 23:40:00,
2013-03-07 17:45:00,62.8,38.1,30.24,SSE,152,1.0,7.0,40,0.00,,,0.00,Wunderground v.1.15,2013-03-07 23:45:00,
2013-03-07 17:50:00,62.3,37.7,30.24,SSE,152,1.0,1.0,40,0.00,,,0.00,Wunderground v.1.15,2013-03-07 23:50:00,
2013-03-07 17:55:00,61.8,35.9,30.24,SSE,152,1.0,7.0,38,0.00,,,0.00,Wunderground v.1.15,2013-03-07 23:55:00,
2013-03-07 18:00:00,61.3,38.6,30.24,SSE,152,0.0,7.0,43,0.00,,,0.00,Wunderground v.1.15,2013-03-08 00:00:00,
2013-03-07 18:10:00,59.9,37.3,30.23,SSE,153,0.0,7.0,43,0.00,,,0.00,Wunderground v.1.15,2013-03-08 00:10:00,
2013-03-07 18:15:00,59.3,37.4,30.23,SSE,152,0.0,7.0,44,0.00,,,0.00,Wunderground v.1.15,2013-03-08 00:15:00,
2013-03-07 18:20:00,58.6,36.7,30.24,SSE,152,0.0,7.0,44,0.00,,,0.00,Wunderground v.1.15,2013-03-08 00:20:00,
2013-03-07 18:25:00,58.3,34.7,30.23,SSE,152,0.0,7.0,41,0.00,,,0.00,Wunderground v.1.15,2013-03-08 00:25:00,
2013-03-07 18:30:00,58.2,34.0,30.24,SSE,152,0.0,7.0,40,0.00,,,0.00,Wunderground v.1.15,2013-03-08 00:30:00,
2013-03-07 18:35:00,57.8,35.4,30.24,SSE,152,0.0,7.0,43,0.00,,,0.00,Wunderground v.1.15,2013-03-08 00:35:00,
2013-03-07 18:40:00,57.0,32.9,30.24,SSE,152,0.0,7.0,40,0.00,,,0.00,Wunderground v.1.15,2013-03-08 00:40:00,
2013-03-07 18:50:00,56.6,32.5,30.24,SSE,152,0.0,7.0,40,0.00,,,0.00,Wunderground v.1.15,2013-03-08 00:50:00,
2013-03-07 18:55:00,56.6,38.2,30.24,SSE,152,0.0,7.0,50,0.00,,,0.00,Wunderground v.1.15,2013-03-08 00:55:00,
2013-03-07 19:00:00,56.2,35.7,30.24,SSE,152,0.0,7.0,46,0.00,,,0.00,Wunderground v.1.15,2013-03-08 01:00:00,
2013-03-07 19:05:00,55.9,44.3,30.24,SSE,152,0.0,7.0,65,0.00,,,0.00,Wunderground v.1.15,2013-03-08 01:05:00,
2013-03-07 19:10:00,55.2,34.8,30.25,SSE,152,0.0,7.0,46,0.00,,,0.00,Wunderground v.1.15,2013-03-08 01:10:00,
2013-03-07 19:15:00,55.1,34.7,30.25,SSE,152,0.0,7.0,46,0.00,,,0.00,Wunderground v.1.15,2013-03-08 01:15:00,
2013-03-07 19:20:00,55.4,33.8,30.25,SSE,152,0.0,7.0,44,0.00,,,0.00,Wunderground v.1.15,2013-03-08 01:20:00,
2013-03-07 19:25:00,55.7,34.1,30.25,South,189,0.0,7.0,44,0.00,,,0.00,Wunderground v.1.15,2013-03-08 01:25:00,
2013-03-07 19:30:00,55.1,41.9,30.24,South,189,0.0,7.0,61,0.00,,,0.00,Wunderground v.1.15,2013-03-08 01:30:00,
2013-03-07 19:35:00,53.7,37.4,30.24,South,189,0.0,7.0,54,0.00,,,0.00,Wunderground v.1.15,2013-03-08 01:35:00,
2013-03-07 19:40:00,53.0,37.3,30.24,South,189,0.0,7.0,55,0.00,,,0.00,Wunderground v.1.15,2013-03-08 01:40:00,
2013-03-07 19:50:00,52.0,36.3,30.24,South,189,0.0,7.0,55,0.00,,,0.00,Wunderground v.1.15,2013-03-08 01:50:00,
2013-03-07 19:55:00,52.2,36.5,30.24,South,189,0.0,7.0,55,0.00,,,0.00,Wunderground v.1.15,2013-03-08 01:55:00,
2013-03-07 20:00:00,52.0,38.5,30.24,South,189,0.0,7.0,60,0.00,,,0.00,Wunderground v.1.15,2013-03-08 02:00:00,
2013-03-07 20:05:00,51.8,40.8,30.24,South,189,0.0,7.0,66,0.00,,,0.00,Wunderground v.1.15,2013-03-08 02:05:00,
2013-03-07 20:10:00,51.4,41.2,30.24,South,189,0.0,7.0,68,0.00,,,0.00,Wunderground v.1.15,2013-03-08 02:10:00,
2013-03-07 20:15:00,50.8,41.4,30.24,South,189,0.0,7.0,70,0.00,,,0.00,Wunderground v.1.15,2013-03-08 02:15:00,
2013-03-07 20:25:00,50.2,39.3,30.24,South,174,1.0,7.0,66,0.00,,,0.00,Wunderground v.1.15,2013-03-08 02:25:00,
2013-03-07 20:30:00,49.7,41.0,30.24,South,174,0.0,7.0,72,0.00,,,0.00,Wunderground v.1.15,2013-03-08 02:30:00,
2013-03-07 20:35:00,49.1,39.7,30.24,South,174,0.0,7.0,70,0.00,,,0.00,Wunderground v.1.15,2013-03-08 02:35:00,
2013-03-07 20:40:00,48.8,39.8,30.25,South,174,0.0,7.0,71,0.00,,,0.00,Wunderground v.1.15,2013-03-08 02:40:00,
2013-03-07 20:45:00,48.8,41.2,30.25,South,175,0.0,7.0,75,0.00,,,0.00,Wunderground v.1.15,2013-03-08 02:45:00,
2013-03-07 20:55:00,48.3,36.3,30.25,South,174,0.0,7.0,63,0.00,,,0.00,Wunderground v.1.15,2013-03-08 02:55:00,
2013-03-07 21:00:00,49.2,35.5,30.25,South,174,0.0,7.0,59,0.00,,,0.00,Wunderground v.1.15,2013-03-08 03:00:00,
2013-03-07 21:05:00,50.1,35.4,30.25,SW,230,0.0,7.0,57,0.00,,,0.00,Wunderground v.1.15,2013-03-08 03:05:00,
2013-03-07 21:10:00,50.4,36.6,30.25,SW,230,1.0,1.0,59,0.00,,,0.00,Wunderground v.1.15,2013-03-08 03:10:00,
2013-03-07 21:15:00,50.3,37.4,30.25,SE,143,1.0,7.0,61,0.00,,,0.00,Wunderground v.1.15,2013-03-08 03:15:00,
2013-03-07 21:20:00,48.8,41.9,30.26,SSE,150,1.0,1.0,77,0.00,,,0.00,Wunderground v.1.15,2013-03-08 03:20:00,
2013-03-07 21:30:00,47.2,39.7,30.26,SSE,150,0.0,7.0,75,0.00,,,0.00,Wunderground v.1.15,2013-03-08 03:30:00,
2013-03-07 21:35:00,47.3,39.4,30.26,SSE,150,0.0,7.0,74,0.00,,,0.00,Wunderground v.1.15,2013-03-08 03:35:00,
2013-03-07 21:40:00,47.6,39.0,30.26,SSE,150,0.0,7.0,72,0.00,,,0.00,Wunderground v.1.15,2013-03-08 03:40:00,
2013-03-07 21:45:00,48.2,38.1,30.26,SSE,150,0.0,7.0,68,0.00,,,0.00,Wunderground v.1.15,2013-03-08 03:45:00,
2013-03-07 21:50:00,48.4,37.9,30.26,SSE,149,0.0,7.0,67,0.00,,,0.00,Wunderground v.1.15,2013-03-08 03:50:00,
2013-03-07 22:00:00,49.1,38.6,30.25,SSW,206,0.0,7.0,67,0.00,,,0.00,Wunderground v.1.15,2013-03-08 04:00:00,
2013-03-07 22:05:00,49.1,38.2,30.25,SSW,206,0.0,7.0,66,0.00,,,0.00,Wunderground v.1.15,2013-03-08 04:05:00,
2013-03-07 22:10:00,48.6,37.7,30.26,SSW,206,0.0,7.0,66,0.00,,,0.00,Wunderground v.1.15,2013-03-08 04:10:00,
2013-03-07 22:15:00,49.0,39.6,30.26,SSW,206,0.0,7.0,70,0.00,,,0.00,Wunderground v.1.15,2013-03-08 04:15:00,
2013-03-07 22:20:00,49.1,39.4,30.26,SSW,206,0.0,7.0,69,0.00,,,0.00,Wunderground v.1.15,2013-03-08 04:20:00,
2013-03-07 22:25:00,48.8,39.8,30.26,SSW,206,0.0,7.0,71,0.00,,,0.00,Wunderground v.1.15,2013-03-08 04:25:00,
2013-03-07 22:35:00,49.2,40.6,30.26,SSW,206,0.0,7.0,72,0.00,,,0.00,Wunderground v.1.15,2013-03-08 04:35:00,
2013-03-07 22:40:00,49.2,40.6,30.26,SSW,206,0.0,7.0,72,0.00,,,0.00,Wunderground v.1.15,2013-03-08 04:40:00,
2013-03-07 22:45:00,49.0,40.7,30.25,SSW,206,0.0,7.0,73,0.00,,,0.00,Wunderground v.1.15,2013-03-08 04:45:00,
2013-03-07 22:50:00,48.9,41.3,30.25,SSW,206,0.0,7.0,75,0.00,,,0.00,Wunderground v.1.15,2013-03-08 04:50:00,
2013-03-07 22:55:00,48.5,41.6,30.26,SSW,206,0.0,7.0,77,0.00,,,0.00,Wunderground v.1.15,2013-03-08 04:55:00,
2013-03-07 23:00:00,47.9,41.0,30.25,SSW,206,0.0,7.0,77,0.00,,,0.00,Wunderground v.1.15,2013-03-08 05:00:00,
2013-03-07 23:05:00,47.7,42.2,30.25,SSW,206,0.0,7.0,81,0.00,,,0.00,Wunderground v.1.15,2013-03-08 05:05:00,
2013-03-07 23:10:00,47.2,42.6,30.26,SSW,206,0.0,7.0,84,0.00,,,0.00,Wunderground v.1.15,2013-03-08 05:10:00,
2013-03-07 23:15:00,46.4,41.8,30.25,SSW,206,0.0,7.0,84,0.00,,,0.00,Wunderground v.1.15,2013-03-08 05:15:00,
2013-03-07 23:20:00,45.6,40.4,30.26,SE,137,1.0,1.0,82,0.00,,,0.00,Wunderground v.1.15,2013-03-08 05:20:00,
2013-03-07 23:25:00,44.9,38.8,30.26,SE,127,1.0,7.0,79,0.00,,,0.00,Wunderground v.1.15,2013-03-08 05:25:00,
2013-03-07 23:30:00,44.5,40.0,30.26,SE,127,1.0,1.0,84,0.00,,,0.00,Wunderground v.1.15,2013-03-08 05:30:00,
2013-03-07 23:35:00,44.5,40.3,30.26,SE,127,0.0,7.0,85,0.00,,,0.00,Wunderground v.1.15,2013-03-08 05:35:00,
2013-03-07 23:40:00,44.7,41.1,30.26,SE,127,0.0,7.0,87,0.00,,,0.00,Wunderground v.1.15,2013-03-08 05:40:00,
2013-03-07 23:45:00,44.7,41.1,30.26,SE,127,0.0,7.0,87,0.00,,,0.00,Wunderground v.1.15,2013-03-08 05:45:00,
2013-03-07 23:50:00,44.3,40.1,30.25,SE,127,0.0,7.0,85,0.00,,,0.00,Wunderground v.1.15,2013-03-08 05:50:00,
2013-03-07 23:55:00,44.1,39.9,30.25,SE,127,0.0,7.0,85,0.00,,,0.00,Wunderground v.1.15,2013-03-08 05:55:00,